createdAt,value
2018-06-07T00:00:40.019Z,10.93
2018-06-07T00:03:09.985Z,10.92
2018-06-07T00:05:39.851Z,10.89
2018-06-07T00:08:09.920Z,10.85
2018-06-07T00:10:39.589Z,10.82
2018-06-07T00:13:09.502Z,10.79
2018-06-07T00:15:39.315Z,10.77
2018-06-07T00:18:09.241Z,10.72
2018-06-07T00:20:39.035Z,10.73
2018-06-07T00:23:08.763Z,10.75
2018-06-07T00:25:38.615Z,10.79
2018-06-07T00:28:08.276Z,10.79
2018-06-07T00:30:38.296Z,10.83
2018-06-07T00:33:08.228Z,10.85
2018-06-07T00:35:43.109Z,10.89
2018-06-07T00:38:13.180Z,10.84
2018-06-07T00:40:42.862Z,10.84
2018-06-07T00:43:12.652Z,10.84
2018-06-07T00:45:42.484Z,10.83
2018-06-07T00:48:12.471Z,10.79
2018-06-07T00:50:42.284Z,10.76
2018-06-07T00:53:12.294Z,10.74
2018-06-07T00:55:42.038Z,10.73
2018-06-07T00:58:11.785Z,10.71
2018-06-07T01:00:41.817Z,10.69
2018-06-07T01:03:11.799Z,10.65
2018-06-07T01:05:41.590Z,10.63
2018-06-07T01:08:11.129Z,10.58
2018-06-07T01:10:41.937Z,10.56
2018-06-07T01:13:11.893Z,10.50
2018-06-07T01:15:41.664Z,10.48
2018-06-07T01:18:11.393Z,10.43
2018-06-07T01:20:41.086Z,10.41
2018-06-07T01:23:10.847Z,10.37
2018-06-07T01:25:40.525Z,10.34
2018-06-07T01:28:10.617Z,10.30
2018-06-07T01:30:45.570Z,10.23
2018-06-07T01:33:38.128Z,10.25
2018-06-07T01:36:07.850Z,10.19
2018-06-07T01:38:48.419Z,10.19
2018-06-07T01:41:18.283Z,10.18
2018-06-07T01:43:48.202Z,10.14
2018-06-07T01:46:17.809Z,10.11
2018-06-07T01:48:47.844Z,10.09
2018-06-07T01:51:17.703Z,10.11
2018-06-07T01:53:48.215Z,10.03
2018-06-07T01:56:18.785Z,10.04
2018-06-07T01:58:49.700Z,9.97
2018-06-07T02:01:19.592Z,9.95
2018-06-07T02:03:49.389Z,9.86
2018-06-07T02:06:19.239Z,9.82
2018-06-07T02:08:49.034Z,9.77
2018-06-07T02:11:19.042Z,9.73
2018-06-07T02:13:49.067Z,9.72
2018-06-07T02:16:18.805Z,9.69
2018-06-07T02:18:48.391Z,9.59
2018-06-07T02:21:18.415Z,9.56
2018-06-07T02:23:48.150Z,9.51
2018-06-07T02:26:17.958Z,9.48
2018-06-07T02:28:48.015Z,9.47
2018-06-07T02:31:17.716Z,9.40
2018-06-07T02:33:47.499Z,9.34
2018-06-07T02:36:17.501Z,9.25
2018-06-07T02:38:48.370Z,9.24
2018-06-07T02:41:18.163Z,9.22
2018-06-07T02:43:48.196Z,9.24
2018-06-07T02:46:17.833Z,9.24
2018-06-07T02:48:47.955Z,9.24
2018-06-07T02:51:17.904Z,9.31
2018-06-07T02:53:47.676Z,9.33
2018-06-07T02:56:17.746Z,9.33
2018-06-07T02:58:47.889Z,9.30
2018-06-07T03:01:17.594Z,9.30
2018-06-07T03:03:48.377Z,9.32
2018-06-07T03:06:18.070Z,9.33
2018-06-07T03:08:49.152Z,9.36
2018-06-07T03:11:19.119Z,9.47
2018-06-07T03:13:49.054Z,9.47
2018-06-07T03:16:18.973Z,9.59
2018-06-07T03:18:48.805Z,9.73
2018-06-07T03:21:18.634Z,9.79
2018-06-07T03:23:48.325Z,9.89
2018-06-07T03:26:18.216Z,9.98
2018-06-07T03:28:48.168Z,10.05
2018-06-07T03:31:18.098Z,10.11
2018-06-07T03:33:48.269Z,10.14
2018-06-07T03:36:17.981Z,10.19
2018-06-07T03:38:47.739Z,10.21
2018-06-07T03:41:17.882Z,10.25
2018-06-07T03:43:47.767Z,10.27
2018-06-07T03:46:17.564Z,10.33
2018-06-07T03:48:47.475Z,10.38
2018-06-07T03:51:17.314Z,10.45
2018-06-07T03:53:46.939Z,10.49
2018-06-07T03:56:16.685Z,10.59
2018-06-07T03:58:46.585Z,10.66
2018-06-07T04:01:16.171Z,10.73
2018-06-07T04:03:46.376Z,10.80
2018-06-07T04:06:16.274Z,10.85
2018-06-07T04:08:46.279Z,10.98
2018-06-07T04:11:16.150Z,11.03
2018-06-07T04:13:45.991Z,11.11
2018-06-07T04:16:15.848Z,11.19
2018-06-07T04:18:45.763Z,11.32
2018-06-07T04:21:15.645Z,11.40
2018-06-07T04:23:45.624Z,11.52
2018-06-07T04:26:15.634Z,11.66
2018-06-07T04:28:45.416Z,11.75
2018-06-07T04:31:15.210Z,11.84
2018-06-07T04:33:45.057Z,11.94
2018-06-07T04:36:14.906Z,12.06
2018-06-07T04:38:44.657Z,12.17
2018-06-07T04:41:14.608Z,12.28
2018-06-07T04:43:44.245Z,12.37
2018-06-07T04:46:14.224Z,12.49
2018-06-07T04:48:45.016Z,12.60
2018-06-07T04:51:15.023Z,12.70
2018-06-07T04:53:45.585Z,12.79
2018-06-07T04:56:15.395Z,12.88
2018-06-07T04:58:45.117Z,12.97
2018-06-07T05:01:15.248Z,13.06
2018-06-07T05:03:44.948Z,13.16
2018-06-07T05:06:14.858Z,13.25
2018-06-07T05:09:01.146Z,13.33
2018-06-07T05:11:31.070Z,13.44
2018-06-07T05:14:01.001Z,13.53
2018-06-07T05:16:31.102Z,13.62
2018-06-07T05:19:00.951Z,13.72
2018-06-07T05:21:30.647Z,13.78
2018-06-07T05:24:00.648Z,13.88
2018-06-07T05:26:30.495Z,13.95
2018-06-07T05:29:00.398Z,14.04
2018-06-07T05:31:30.277Z,14.14
2018-06-07T05:34:00.110Z,14.22
2018-06-07T05:36:29.972Z,14.28
2018-06-07T05:38:59.927Z,14.37
2018-06-07T05:41:29.821Z,14.51
2018-06-07T05:43:59.602Z,14.62
2018-06-07T05:46:29.310Z,14.73
2018-06-07T05:48:59.113Z,14.79
2018-06-07T05:51:28.775Z,14.89
2018-06-07T05:53:58.993Z,14.96
2018-06-07T05:56:28.848Z,15.04
2018-06-07T05:58:58.656Z,15.12
2018-06-07T06:01:30.063Z,15.24
2018-06-07T06:04:00.015Z,15.34
2018-06-07T06:06:30.089Z,15.44
2018-06-07T06:08:59.903Z,15.53
2018-06-07T06:11:29.783Z,15.62
2018-06-07T06:13:59.807Z,15.68
2018-06-07T06:16:29.875Z,15.78
2018-06-07T06:18:59.554Z,15.85
2018-06-07T06:21:29.241Z,15.93
2018-06-07T06:23:59.208Z,16.09
2018-06-07T06:26:28.754Z,16.19
2018-06-07T06:28:58.451Z,16.30
2018-06-07T06:31:28.555Z,16.41
2018-06-07T06:33:58.636Z,16.48
2018-06-07T06:36:28.674Z,16.60
2018-06-07T06:38:58.612Z,16.69
2018-06-07T06:41:28.353Z,16.77
2018-06-07T06:43:58.407Z,16.89
2018-06-07T06:46:28.223Z,17.02
2018-06-07T06:48:58.217Z,17.15
2018-06-07T06:51:28.123Z,17.26
2018-06-07T06:53:57.985Z,17.34
2018-06-07T06:56:28.076Z,17.43
2018-06-07T06:58:57.772Z,17.55
2018-06-07T07:01:27.649Z,17.65
2018-06-07T07:03:58.183Z,17.75
2018-06-07T07:06:28.283Z,17.87
2018-06-07T07:08:58.210Z,18.05
2018-06-07T07:11:28.032Z,18.14
2018-06-07T07:13:58.131Z,18.16
2018-06-07T07:16:27.806Z,18.24
2018-06-07T07:18:57.392Z,18.26
2018-06-07T07:21:27.220Z,18.36
2018-06-07T07:23:57.175Z,18.39
2018-06-07T07:26:27.067Z,18.43
2018-06-07T07:28:57.025Z,18.52
2018-06-07T07:31:26.840Z,18.57
2018-06-07T07:33:56.798Z,18.65
2018-06-07T07:36:26.920Z,18.73
2018-06-07T07:38:56.667Z,18.95
2018-06-07T07:41:26.495Z,19.13
2018-06-07T07:43:56.769Z,19.28
2018-06-07T07:46:26.556Z,19.40
2018-06-07T07:48:56.095Z,19.50
2018-06-07T07:51:26.007Z,19.60
2018-06-07T07:53:55.798Z,19.67
2018-06-07T07:56:25.690Z,19.81
2018-06-07T07:58:55.724Z,19.90
2018-06-07T08:01:25.651Z,19.96
2018-06-07T08:03:55.458Z,20.07
2018-06-07T08:06:25.223Z,20.18
2018-06-07T08:08:55.011Z,20.25
2018-06-07T08:11:24.914Z,20.29
2018-06-07T08:13:54.864Z,20.35
2018-06-07T08:16:24.705Z,20.49
2018-06-07T08:18:54.504Z,20.57
2018-06-07T08:21:24.733Z,20.64
2018-06-07T08:23:54.627Z,20.64
2018-06-07T08:26:24.364Z,20.71
2018-06-07T08:28:54.513Z,20.73
2018-06-07T08:31:24.471Z,20.82
2018-06-07T08:33:54.725Z,20.90
2018-06-07T08:36:25.036Z,20.99
2018-06-07T08:38:54.600Z,21.02
2018-06-07T08:41:24.370Z,21.08
2018-06-07T08:43:55.296Z,21.11
2018-06-07T08:46:25.053Z,21.14
2018-06-07T08:48:54.895Z,21.15
2018-06-07T08:51:24.705Z,21.24
2018-06-07T08:53:54.636Z,21.34
2018-06-07T08:56:24.629Z,21.45
2018-06-07T08:58:54.939Z,21.47
2018-06-07T09:01:24.810Z,21.46
2018-06-07T09:03:55.234Z,21.55
2018-06-07T09:06:25.300Z,21.61
2018-06-07T09:08:55.573Z,21.65
2018-06-07T09:11:25.533Z,21.74
2018-06-07T09:13:55.350Z,21.76
2018-06-07T09:16:25.135Z,21.72
2018-06-07T09:18:54.930Z,21.74
2018-06-07T09:21:24.922Z,21.78
2018-06-07T09:23:54.696Z,21.82
2018-06-07T09:26:24.539Z,22.00
2018-06-07T09:28:54.600Z,22.06
2018-06-07T09:31:24.659Z,22.12
2018-06-07T09:33:54.332Z,22.11
2018-06-07T09:36:24.467Z,22.16
2018-06-07T09:38:54.290Z,22.29
2018-06-07T09:41:24.353Z,22.40
2018-06-07T09:43:54.062Z,22.46
2018-06-07T09:46:23.835Z,22.59
2018-06-07T09:48:53.703Z,22.72
2018-06-07T09:51:23.464Z,22.74
2018-06-07T09:53:53.190Z,22.78
2018-06-07T09:56:22.979Z,22.91
2018-06-07T09:58:53.085Z,23.08
2018-06-07T10:01:23.032Z,23.10
2018-06-07T10:03:52.822Z,23.19
2018-06-07T10:06:22.929Z,23.16
2018-06-07T10:08:52.788Z,23.19
2018-06-07T10:11:23.288Z,23.37
2018-06-07T10:13:53.252Z,23.52
2018-06-07T10:16:22.868Z,23.60
2018-06-07T10:18:53.130Z,23.74
2018-06-07T10:21:22.818Z,23.87
2018-06-07T10:23:52.618Z,23.96
2018-06-07T10:26:22.613Z,23.97
2018-06-07T10:28:52.278Z,24.15
2018-06-07T10:31:21.839Z,24.28
2018-06-07T10:33:51.848Z,24.47
2018-06-07T10:36:21.456Z,24.49
2018-06-07T10:38:51.324Z,24.57
2018-06-07T10:41:21.281Z,24.67
2018-06-07T10:43:51.044Z,24.87
2018-06-07T10:46:20.885Z,25.08
2018-06-07T10:48:50.951Z,25.28
2018-06-07T10:51:20.817Z,25.41
2018-06-07T10:53:56.819Z,25.55
2018-06-07T10:56:26.629Z,25.73
2018-06-07T10:58:56.524Z,25.95
2018-06-07T11:01:26.875Z,26.16
2018-06-07T11:03:56.751Z,26.42
2018-06-07T11:06:26.461Z,26.74
2018-06-07T11:08:56.804Z,26.86
2018-06-07T11:11:26.752Z,26.95
2018-06-07T11:13:56.722Z,27.16
2018-06-07T11:16:26.377Z,27.59
2018-06-07T11:18:56.136Z,27.97
2018-06-07T11:21:25.918Z,28.23
2018-06-07T11:23:55.679Z,28.96
2018-06-07T11:26:25.487Z,29.70
2018-06-07T11:28:55.300Z,29.96
2018-06-07T11:31:26.243Z,30.33
2018-06-07T11:33:55.887Z,30.50
2018-06-07T11:36:25.534Z,30.94
2018-06-07T11:38:55.583Z,31.51
2018-06-07T11:41:25.604Z,31.95
2018-06-07T11:43:55.527Z,32.32
2018-06-07T11:46:25.297Z,32.40
2018-06-07T11:48:55.154Z,32.88
2018-06-07T11:51:25.015Z,32.91
2018-06-07T11:53:55.152Z,32.65
2018-06-07T11:56:25.081Z,32.96
2018-06-07T11:58:55.061Z,33.39
2018-06-07T12:01:24.879Z,33.60
2018-06-07T12:03:55.571Z,33.72
2018-06-07T12:06:25.648Z,33.84
2018-06-07T12:08:55.489Z,33.96
2018-06-07T12:11:25.354Z,33.69
2018-06-07T12:13:55.389Z,33.90
2018-06-07T12:16:25.084Z,33.76
2018-06-07T12:18:54.767Z,33.71
2018-06-07T12:21:24.798Z,33.99
2018-06-07T12:23:54.570Z,34.28
2018-06-07T12:26:24.449Z,34.38
2018-06-07T12:28:54.439Z,34.25
2018-06-07T12:31:24.383Z,34.62
2018-06-07T12:33:54.744Z,34.65
2018-06-07T12:36:24.561Z,34.60
2018-06-07T12:38:54.358Z,34.85
2018-06-07T12:41:24.375Z,35.14
2018-06-07T12:43:54.416Z,35.43
2018-06-07T12:46:25.245Z,35.46
2018-06-07T12:49:08.789Z,35.39
2018-06-07T12:51:38.350Z,35.15
2018-06-07T12:54:08.508Z,35.31
2018-06-07T12:56:38.537Z,34.93
2018-06-07T12:59:08.431Z,34.91
2018-06-07T13:01:38.181Z,34.94
2018-06-07T13:04:08.053Z,35.41
2018-06-07T13:06:38.356Z,35.55
2018-06-07T13:09:08.966Z,35.94
2018-06-07T13:11:38.646Z,35.88
2018-06-07T13:14:08.557Z,36.10
2018-06-07T13:16:38.448Z,36.19
2018-06-07T13:19:08.318Z,35.91
2018-06-07T13:21:38.107Z,35.79
2018-06-07T13:24:07.820Z,35.62
2018-06-07T13:26:38.690Z,35.57
2018-06-07T13:29:08.755Z,35.87
2018-06-07T13:31:38.676Z,35.88
2018-06-07T13:34:08.469Z,35.42
2018-06-07T13:36:38.232Z,35.31
2018-06-07T13:39:09.675Z,35.08
2018-06-07T13:41:39.597Z,35.37
2018-06-07T13:44:10.150Z,35.06
2018-06-07T13:46:39.805Z,35.32
2018-06-07T13:49:09.597Z,35.31
2018-06-07T13:51:39.707Z,35.34
2018-06-07T13:54:09.588Z,35.32
2018-06-07T13:56:39.603Z,34.95
2018-06-07T13:59:09.509Z,35.23
2018-06-07T14:01:39.362Z,34.98
2018-06-07T14:04:11.365Z,34.46
2018-06-07T14:06:41.211Z,34.65
2018-06-07T14:09:11.035Z,34.68
2018-06-07T14:11:40.775Z,34.42
2018-06-07T14:14:10.600Z,34.47
2018-06-07T14:16:40.457Z,34.37
2018-06-07T14:19:10.210Z,34.76
2018-06-07T14:21:40.146Z,35.11
2018-06-07T14:24:09.998Z,34.87
2018-06-07T14:26:40.230Z,34.59
2018-06-07T14:29:10.262Z,34.63
2018-06-07T14:31:40.133Z,34.92
2018-06-07T14:34:09.985Z,34.94
2018-06-07T14:36:39.675Z,34.98
2018-06-07T14:39:09.426Z,35.20
2018-06-07T14:41:39.333Z,35.35
2018-06-07T14:44:09.106Z,35.49
2018-06-07T14:46:38.908Z,35.87
2018-06-07T14:49:09.077Z,35.49
2018-06-07T14:51:38.899Z,35.64
2018-06-07T14:54:08.718Z,35.52
2018-06-07T14:56:38.766Z,35.59
2018-06-07T14:59:08.801Z,35.64
2018-06-07T15:01:38.630Z,35.90
2018-06-07T15:04:08.569Z,35.67
2018-06-07T15:06:39.281Z,35.81
2018-06-07T15:09:09.904Z,35.97
2018-06-07T15:11:39.865Z,36.67
2018-06-07T15:14:10.048Z,36.93
2018-06-07T15:16:39.910Z,36.80
2018-06-07T15:19:09.885Z,36.65
2018-06-07T15:21:40.743Z,36.69
2018-06-07T15:24:10.440Z,36.90
2018-06-07T15:26:40.281Z,37.64
2018-06-07T15:29:10.291Z,38.36
2018-06-07T15:31:40.303Z,38.81
2018-06-07T15:34:10.015Z,39.23
2018-06-07T15:36:40.085Z,39.68
2018-06-07T15:39:09.967Z,40.24
2018-06-07T15:41:39.521Z,39.93
2018-06-07T15:44:09.415Z,39.57
2018-06-07T15:46:39.187Z,39.36
2018-06-07T15:49:08.967Z,39.14
2018-06-07T15:51:39.067Z,38.98
2018-06-07T15:54:08.866Z,39.87
2018-06-07T15:56:38.772Z,40.55
2018-06-07T15:59:08.609Z,40.97
2018-06-07T16:01:38.363Z,41.38
2018-06-07T16:04:08.411Z,41.72
2018-06-07T16:06:38.253Z,41.73
2018-06-07T16:09:09.916Z,41.86
2018-06-07T16:11:40.105Z,42.15
2018-06-07T16:14:10.115Z,42.22
2018-06-07T16:16:40.229Z,42.39
2018-06-07T16:19:10.019Z,42.41
2018-06-07T16:21:39.816Z,42.64
2018-06-07T16:24:09.782Z,42.76
2018-06-07T16:26:39.483Z,43.10
2018-06-07T16:29:09.462Z,43.25
2018-06-07T16:31:39.414Z,43.32
2018-06-07T16:34:09.285Z,43.22
2018-06-07T16:36:39.299Z,43.11
2018-06-07T16:39:09.865Z,42.92
2018-06-07T16:41:40.946Z,42.89
2018-06-07T16:44:10.922Z,42.50
2018-06-07T16:46:40.604Z,42.36
2018-06-07T16:49:10.560Z,42.30
2018-06-07T16:51:40.359Z,42.23
2018-06-07T16:54:10.297Z,41.71
2018-06-07T16:56:39.941Z,41.30
2018-06-07T16:59:10.021Z,40.57
2018-06-07T17:01:39.805Z,39.69
2018-06-07T17:04:09.486Z,39.19
2018-06-07T17:06:40.326Z,38.85
2018-06-07T17:09:10.337Z,38.52
2018-06-07T17:11:40.213Z,38.81
2018-06-07T17:14:10.147Z,38.93
2018-06-07T17:16:41.180Z,38.31
2018-06-07T17:19:11.211Z,37.63
2018-06-07T17:21:41.008Z,37.20
2018-06-07T17:24:10.861Z,36.88
2018-06-07T17:26:40.673Z,36.39
2018-06-07T17:29:10.570Z,35.79
2018-06-07T17:31:40.374Z,35.54
2018-06-07T17:34:10.301Z,35.21
2018-06-07T17:36:39.994Z,34.99
2018-06-07T17:39:09.934Z,34.81
2018-06-07T17:41:39.747Z,34.50
2018-06-07T17:44:09.432Z,34.30
2018-06-07T17:46:39.275Z,34.06
2018-06-07T17:49:09.247Z,33.89
2018-06-07T17:51:39.323Z,33.66
2018-06-07T17:54:09.052Z,33.43
2018-06-07T17:56:39.411Z,33.16
2018-06-07T17:59:10.190Z,32.87
2018-06-07T18:01:39.861Z,32.62
2018-06-07T18:04:10.075Z,32.36
2018-06-07T18:06:40.138Z,32.00
2018-06-07T18:09:10.634Z,31.56
2018-06-07T18:11:40.626Z,31.11
2018-06-07T18:14:10.501Z,30.67
2018-06-07T18:16:40.428Z,30.06
2018-06-07T18:19:10.287Z,29.47
2018-06-07T18:21:40.051Z,28.89
2018-06-07T18:24:10.188Z,28.26
2018-06-07T18:26:40.217Z,27.62
2018-06-07T18:29:10.040Z,27.07
2018-06-07T18:31:39.892Z,26.51
2018-06-07T18:34:09.652Z,26.07
2018-06-07T18:36:39.405Z,25.62
2018-06-07T18:39:10.082Z,25.21
2018-06-07T18:41:39.815Z,24.83
2018-06-07T18:44:10.778Z,24.52
2018-06-07T18:46:40.578Z,24.19
2018-06-07T18:49:10.430Z,23.90
2018-06-07T18:51:40.021Z,23.63
2018-06-07T18:54:09.930Z,23.37
2018-06-07T18:56:39.751Z,23.15
2018-06-07T18:59:10.620Z,22.89
2018-06-07T19:01:40.482Z,22.71
2018-06-07T19:04:10.459Z,22.52
2018-06-07T19:06:40.093Z,22.33
2018-06-07T19:09:15.028Z,22.27
2018-06-07T19:11:44.778Z,22.00
2018-06-07T19:14:19.840Z,21.70
2018-06-07T19:16:49.888Z,21.52
2018-06-07T19:19:24.446Z,21.33
2018-06-07T19:21:54.510Z,21.15
2018-06-07T19:24:24.373Z,20.97
2018-06-07T19:26:59.529Z,20.82
2018-06-07T19:29:29.574Z,20.67
2018-06-07T19:32:05.383Z,20.55
2018-06-07T19:34:40.074Z,20.41
2018-06-07T19:37:10.316Z,20.34
2018-06-07T19:39:45.155Z,20.36
2018-06-07T19:42:15.508Z,20.29
2018-06-07T19:44:45.403Z,20.14
2018-06-07T19:47:15.490Z,20.16
2018-06-07T19:49:45.513Z,20.03
2018-06-07T19:52:15.188Z,19.95
2018-06-07T19:54:44.999Z,19.91
2018-06-07T19:57:14.756Z,19.88
2018-06-07T19:59:44.353Z,19.84
2018-06-07T20:02:14.262Z,19.67
2018-06-07T20:04:44.173Z,19.59
2018-06-07T20:07:13.963Z,19.50
2018-06-07T20:09:43.975Z,19.40
2018-06-07T20:12:13.710Z,19.28
2018-06-07T20:14:43.869Z,19.14
2018-06-07T20:17:13.538Z,18.99
2018-06-07T20:19:43.401Z,18.97
2018-06-07T20:22:13.030Z,18.96
2018-06-07T20:24:42.773Z,19.00
2018-06-07T20:27:12.645Z,18.85
2018-06-07T20:29:43.274Z,18.78
2018-06-07T20:32:12.932Z,18.66
2018-06-07T20:34:42.846Z,18.65
2018-06-07T20:37:12.781Z,18.57
2018-06-07T20:39:42.558Z,18.49
2018-06-07T20:42:12.265Z,18.42
2018-06-07T20:44:42.264Z,18.40
2018-06-07T20:47:12.044Z,18.39
2018-06-07T20:49:42.011Z,18.32
2018-06-07T20:52:12.066Z,18.27
2018-06-07T20:54:41.931Z,18.26
2018-06-07T20:57:12.004Z,18.17
2018-06-07T20:59:41.913Z,18.06
2018-06-07T21:02:11.998Z,17.94
2018-06-07T21:04:41.791Z,17.90
2018-06-07T21:07:11.391Z,17.88
2018-06-07T21:09:41.426Z,17.83
2018-06-07T21:12:11.046Z,17.70
2018-06-07T21:14:40.565Z,17.68
2018-06-07T21:17:10.460Z,17.68
2018-06-07T21:19:40.151Z,17.68
2018-06-07T21:22:09.981Z,17.60
2018-06-07T21:24:39.932Z,17.53
2018-06-07T21:27:09.716Z,17.45
2018-06-07T21:29:39.564Z,17.42
2018-06-07T21:32:09.244Z,17.43
2018-06-07T21:34:38.858Z,17.33
2018-06-07T21:37:08.773Z,17.34
2018-06-07T21:39:39.657Z,17.31
2018-06-07T21:42:09.467Z,17.31
2018-06-07T21:44:39.065Z,17.32
2018-06-07T21:47:08.729Z,17.26
2018-06-07T21:49:38.478Z,17.17
2018-06-07T21:52:08.479Z,17.10
2018-06-07T21:54:38.333Z,17.01
2018-06-07T21:57:08.253Z,16.98
2018-06-07T21:59:37.831Z,17.00
2018-06-07T22:02:08.099Z,17.00
2018-06-07T22:04:37.773Z,17.00
2018-06-07T22:07:07.372Z,16.91
2018-06-07T22:09:36.956Z,16.82
2018-06-07T22:12:06.818Z,16.71
2018-06-07T22:14:36.504Z,16.52
2018-06-07T22:17:06.430Z,16.47
2018-06-07T22:19:36.391Z,16.45
2018-06-07T22:22:06.393Z,16.35
2018-06-07T22:24:36.071Z,16.29
2018-06-07T22:27:06.951Z,16.19
2018-06-07T22:29:36.875Z,16.19
2018-06-07T22:32:06.573Z,16.14
2018-06-07T22:34:36.628Z,16.04
2018-06-07T22:37:06.406Z,16.03
2018-06-07T22:39:39.236Z,16.03
2018-06-07T22:42:09.573Z,15.98
2018-06-07T22:44:39.309Z,15.92
2018-06-07T22:47:09.129Z,15.80
2018-06-07T22:49:39.111Z,15.75
2018-06-07T22:52:08.719Z,15.67
2018-06-07T22:54:38.563Z,15.62
2018-06-07T22:57:08.688Z,15.56
2018-06-07T22:59:38.431Z,15.58
2018-06-07T23:02:08.264Z,15.55
2018-06-07T23:04:38.052Z,15.52
2018-06-07T23:07:07.833Z,15.52
2018-06-07T23:09:37.679Z,15.41
2018-06-07T23:12:07.778Z,15.28
2018-06-07T23:14:37.529Z,15.25
2018-06-07T23:17:07.248Z,15.24
2018-06-07T23:19:36.948Z,15.27
2018-06-07T23:22:06.564Z,15.25
2018-06-07T23:24:36.479Z,15.23
2018-06-07T23:27:06.085Z,15.28
2018-06-07T23:29:35.913Z,15.20
2018-06-07T23:32:05.758Z,15.11
2018-06-07T23:34:35.262Z,15.08
2018-06-07T23:37:05.137Z,15.10
2018-06-07T23:39:35.127Z,15.08
2018-06-07T23:42:05.005Z,15.08
2018-06-07T23:44:34.817Z,15.06
2018-06-07T23:47:04.692Z,15.07
2018-06-07T23:49:34.670Z,15.05
2018-06-07T23:52:04.539Z,14.97
2018-06-07T23:54:34.246Z,14.98
2018-06-07T23:57:04.181Z,14.93
2018-06-07T23:59:34.953Z,14.89
